createdAt,value
2022-11-17T00:00:21.550Z,82.80
2022-11-17T00:02:50.681Z,83.14
2022-11-17T00:05:18.633Z,83.48
2022-11-17T00:07:48.903Z,83.40
2022-11-17T00:10:18.162Z,83.36
2022-11-17T00:13:03.331Z,83.51
2022-11-17T00:15:31.106Z,83.53
2022-11-17T00:18:14.005Z,83.48
2022-11-17T00:21:00.270Z,83.31
2022-11-17T00:23:46.905Z,83.53
2022-11-17T00:26:16.458Z,84.01
2022-11-17T00:28:44.126Z,83.61
2022-11-17T00:31:30.299Z,83.80
2022-11-17T00:34:05.940Z,84.05
2022-11-17T00:36:35.406Z,84.08
2022-11-17T00:39:03.057Z,84.48
2022-11-17T00:41:30.761Z,84.17
2022-11-17T00:43:58.378Z,84.32
2022-11-17T00:46:26.037Z,84.44
2022-11-17T00:48:53.816Z,84.53
2022-11-17T00:51:23.355Z,84.63
2022-11-17T00:53:51.045Z,84.56
2022-11-17T00:56:18.793Z,84.79
2022-11-17T00:58:46.513Z,84.82
2022-11-17T01:01:14.303Z,84.92
2022-11-17T01:03:42.102Z,84.98
2022-11-17T01:06:11.771Z,85.46
2022-11-17T01:08:41.109Z,85.73
2022-11-17T01:11:11.335Z,85.66
2022-11-17T01:13:40.113Z,85.69
2022-11-17T01:16:10.437Z,85.55
2022-11-17T01:18:38.696Z,86.08
2022-11-17T01:21:09.136Z,86.01
2022-11-17T01:23:37.831Z,85.80
2022-11-17T01:26:09.507Z,85.97
2022-11-17T01:28:37.946Z,86.00
2022-11-17T01:31:08.191Z,86.25
2022-11-17T01:33:36.098Z,86.08
2022-11-17T01:36:04.560Z,88.40
2022-11-17T01:38:32.786Z,86.49
2022-11-17T01:41:01.331Z,86.87
2022-11-17T01:43:42.834Z,88.24
2022-11-17T01:46:19.989Z,87.23
2022-11-17T01:48:49.923Z,86.66
2022-11-17T01:51:18.613Z,87.07
2022-11-17T01:53:47.719Z,87.12
2022-11-17T01:56:20.579Z,87.09
2022-11-17T01:58:55.837Z,87.49
2022-11-17T02:01:23.572Z,88.08
2022-11-17T02:03:51.932Z,87.86
2022-11-17T02:06:25.447Z,87.55
2022-11-17T02:08:54.831Z,89.91
2022-11-17T02:11:23.787Z,89.06
2022-11-17T02:13:55.841Z,87.97
2022-11-17T02:16:23.528Z,87.67
2022-11-17T02:18:51.325Z,87.74
2022-11-17T02:21:56.825Z,89.61
2022-11-17T02:24:54.801Z,89.39
2022-11-17T02:27:53.317Z,88.55
2022-11-17T02:30:22.926Z,88.01
2022-11-17T02:33:01.904Z,88.43
2022-11-17T02:35:37.543Z,88.34
2022-11-17T02:38:17.779Z,88.78
2022-11-17T02:40:50.648Z,88.59
2022-11-17T02:43:41.121Z,89.07
2022-11-17T02:46:12.120Z,88.86
2022-11-17T02:48:42.816Z,88.88
2022-11-17T02:51:15.608Z,88.90
2022-11-17T02:53:43.890Z,89.09
2022-11-17T02:56:11.565Z,88.54
2022-11-17T02:58:40.570Z,88.72
2022-11-17T03:01:28.459Z,88.81
2022-11-17T03:04:11.826Z,89.29
2022-11-17T03:06:47.848Z,88.84
2022-11-17T03:09:22.747Z,88.67
2022-11-17T03:11:55.163Z,88.63
2022-11-17T03:14:32.480Z,88.69
2022-11-17T03:17:06.751Z,89.05
2022-11-17T03:19:39.206Z,89.02
2022-11-17T03:22:13.073Z,89.15
2022-11-17T03:24:46.031Z,89.18
2022-11-17T03:27:18.948Z,88.96
2022-11-17T03:29:52.228Z,88.91
2022-11-17T03:32:20.465Z,89.18
2022-11-17T03:34:53.250Z,88.90
2022-11-17T03:37:24.043Z,88.81
2022-11-17T03:39:54.815Z,88.95
2022-11-17T03:42:26.831Z,89.32
2022-11-17T03:44:58.265Z,89.22
2022-11-17T03:47:29.268Z,89.16
2022-11-17T03:50:03.109Z,89.38
2022-11-17T03:52:31.839Z,89.21
2022-11-17T03:54:59.875Z,89.04
2022-11-17T03:57:29.797Z,90.76
2022-11-17T04:00:01.591Z,89.28
2022-11-17T04:02:29.395Z,89.09
2022-11-17T04:05:09.297Z,89.00
2022-11-17T04:07:40.075Z,88.81
2022-11-17T04:10:09.827Z,88.89
2022-11-17T04:12:55.177Z,89.06
2022-11-17T04:15:47.585Z,88.99
2022-11-17T04:18:15.992Z,88.81
2022-11-17T04:20:43.670Z,88.96
2022-11-17T04:23:14.250Z,88.81
2022-11-17T04:26:01.568Z,88.89
2022-11-17T04:28:39.779Z,89.15
2022-11-17T04:31:11.677Z,89.30
2022-11-17T04:33:41.042Z,88.97
2022-11-17T04:36:10.035Z,89.01
2022-11-17T04:38:37.866Z,88.75
2022-11-17T04:41:24.597Z,88.79
2022-11-17T04:43:52.558Z,89.04
2022-11-17T04:46:23.040Z,89.09
2022-11-17T04:48:50.711Z,89.03
2022-11-17T04:51:18.469Z,89.22
2022-11-17T04:53:46.336Z,89.12
2022-11-17T04:56:14.324Z,89.00
2022-11-17T04:58:42.142Z,90.13
2022-11-17T05:01:17.504Z,88.83
2022-11-17T05:03:48.221Z,89.50
2022-11-17T05:06:17.531Z,89.11
2022-11-17T05:08:45.800Z,89.16
2022-11-17T05:11:32.481Z,89.44
2022-11-17T05:14:00.559Z,89.27
2022-11-17T05:16:45.786Z,90.07
2022-11-17T05:19:16.921Z,89.35
2022-11-17T05:21:44.559Z,89.42
2022-11-17T05:24:11.592Z,89.32
2022-11-17T05:26:39.568Z,89.38
2022-11-17T05:29:07.897Z,89.87
2022-11-17T05:31:35.811Z,89.38
2022-11-17T05:34:04.152Z,89.15
2022-11-17T05:36:33.845Z,89.55
2022-11-17T05:39:01.805Z,89.53
2022-11-17T05:41:29.815Z,89.60
2022-11-17T05:43:57.370Z,90.89
2022-11-17T05:46:25.709Z,90.21
2022-11-17T05:48:54.143Z,89.59
2022-11-17T05:51:24.412Z,89.81
2022-11-17T05:53:53.411Z,89.91
2022-11-17T05:56:36.536Z,90.29
2022-11-17T05:59:23.319Z,90.45
2022-11-17T06:02:00.398Z,90.40
2022-11-17T06:04:28.506Z,90.33
2022-11-17T06:06:59.025Z,90.50
2022-11-17T06:09:30.724Z,90.62
2022-11-17T06:12:02.611Z,90.91
2022-11-17T06:14:33.485Z,90.97
2022-11-17T06:17:06.124Z,90.79
2022-11-17T06:19:39.422Z,90.85
2022-11-17T06:22:12.610Z,90.78
2022-11-17T06:24:44.156Z,91.12
2022-11-17T06:27:13.023Z,91.31
2022-11-17T06:29:43.847Z,91.41
2022-11-17T06:32:13.042Z,91.94
2022-11-17T06:34:40.847Z,90.91
2022-11-17T06:37:08.480Z,91.39
2022-11-17T06:39:36.139Z,91.52
2022-11-17T06:42:05.286Z,91.51
2022-11-17T06:44:33.017Z,91.57
2022-11-17T06:47:00.668Z,91.79
2022-11-17T06:49:28.498Z,91.62
2022-11-17T06:51:56.181Z,91.56
2022-11-17T06:54:23.884Z,91.63
2022-11-17T06:56:52.503Z,91.66
2022-11-17T06:59:21.551Z,91.95
2022-11-17T07:01:49.230Z,92.08
2022-11-17T07:04:16.927Z,92.08
2022-11-17T07:06:44.616Z,91.91
2022-11-17T07:09:12.310Z,92.22
2022-11-17T07:11:40.050Z,92.78
2022-11-17T07:14:07.780Z,92.92
2022-11-17T07:16:37.398Z,92.59
2022-11-17T07:19:05.120Z,92.98
2022-11-17T07:21:33.849Z,92.76
2022-11-17T07:24:01.694Z,93.14
2022-11-17T07:26:29.399Z,93.36
2022-11-17T07:28:57.155Z,92.95
2022-11-17T07:31:24.900Z,93.18
2022-11-17T07:33:55.124Z,93.71
2022-11-17T07:36:22.873Z,93.77
2022-11-17T07:38:50.579Z,93.09
2022-11-17T07:41:18.267Z,93.41
2022-11-17T07:43:45.962Z,93.44
2022-11-17T07:46:15.250Z,93.16
2022-11-17T07:48:44.362Z,93.18
2022-11-17T07:51:14.130Z,93.36
2022-11-17T07:53:41.945Z,93.14
2022-11-17T07:56:11.336Z,93.48
2022-11-17T07:58:39.837Z,93.65
2022-11-17T08:01:08.987Z,93.41
2022-11-17T08:03:36.929Z,93.45
2022-11-17T08:06:05.292Z,93.71
2022-11-17T08:08:35.448Z,93.97
2022-11-17T08:11:04.633Z,93.78
2022-11-17T08:13:32.434Z,93.81
2022-11-17T08:16:00.385Z,94.12
2022-11-17T08:18:30.442Z,93.93
2022-11-17T08:21:03.474Z,94.35
2022-11-17T08:23:31.331Z,94.76
2022-11-17T08:26:00.524Z,94.82
2022-11-17T08:28:28.283Z,94.25
2022-11-17T08:30:56.035Z,94.10
2022-11-17T08:33:23.815Z,94.21
2022-11-17T08:35:51.514Z,94.23
2022-11-17T08:38:19.413Z,94.72
2022-11-17T08:40:47.829Z,94.72
2022-11-17T08:43:16.870Z,94.64
2022-11-17T08:45:44.612Z,94.27
2022-11-17T08:48:12.294Z,94.51
2022-11-17T08:50:40.101Z,94.55
2022-11-17T08:53:07.902Z,94.06
2022-11-17T08:55:41.213Z,93.93
2022-11-17T08:58:09.322Z,94.67
2022-11-17T09:00:38.407Z,94.92
2022-11-17T09:03:07.540Z,94.72
2022-11-17T09:05:39.704Z,94.78
2022-11-17T09:08:37.819Z,95.15
2022-11-17T09:10:55.219Z,94.49
2022-11-17T09:13:22.972Z,94.40
2022-11-17T09:15:52.027Z,94.05
2022-11-17T09:18:19.717Z,94.65
2022-11-17T09:20:47.377Z,94.07
2022-11-17T09:23:15.089Z,94.02
2022-11-17T09:25:42.773Z,93.80
2022-11-17T09:28:10.464Z,94.11
2022-11-17T09:30:38.228Z,94.26
2022-11-17T09:33:07.264Z,94.37
2022-11-17T09:35:34.950Z,94.21
2022-11-17T09:38:02.802Z,94.28
2022-11-17T09:40:36.293Z,94.06
2022-11-17T09:43:09.770Z,93.83
2022-11-17T09:45:39.878Z,94.08
2022-11-17T09:48:39.593Z,94.24
2022-11-17T09:51:04.374Z,93.69
2022-11-17T09:53:43.215Z,94.16
2022-11-17T09:56:13.275Z,94.27
2022-11-17T09:58:46.177Z,93.82
2022-11-17T10:01:16.100Z,93.76
2022-11-17T10:03:47.795Z,94.12
2022-11-17T10:06:20.355Z,93.94
2022-11-17T10:08:58.174Z,93.66
2022-11-17T10:11:33.835Z,94.11
2022-11-17T10:14:13.439Z,94.49
2022-11-17T10:16:43.628Z,94.33
2022-11-17T10:19:17.892Z,94.14
2022-11-17T10:21:46.669Z,94.17
2022-11-17T10:24:34.876Z,94.81
2022-11-17T10:27:03.692Z,94.28
2022-11-17T10:29:31.455Z,94.30
2022-11-17T10:31:59.772Z,94.16
2022-11-17T10:34:41.413Z,94.28
2022-11-17T10:37:25.486Z,94.08
2022-11-17T10:40:10.147Z,94.02
2022-11-17T10:42:38.014Z,93.85
2022-11-17T10:45:07.376Z,94.29
2022-11-17T10:47:39.414Z,94.67
2022-11-17T10:50:27.476Z,94.54
2022-11-17T10:53:17.019Z,94.42
2022-11-17T10:55:45.434Z,94.21
2022-11-17T10:58:24.553Z,94.00
2022-11-17T11:00:54.781Z,94.02
2022-11-17T11:03:24.744Z,94.10
2022-11-17T11:05:59.734Z,93.99
2022-11-17T11:08:32.039Z,94.25
2022-11-17T11:11:01.173Z,94.03
2022-11-17T11:13:35.015Z,93.97
2022-11-17T11:16:02.729Z,94.04
2022-11-17T11:18:32.703Z,93.89
2022-11-17T11:21:12.513Z,93.96
2022-11-17T11:23:49.556Z,93.84
2022-11-17T11:26:45.553Z,93.90
2022-11-17T11:29:26.027Z,93.88
2022-11-17T11:32:07.686Z,94.11
2022-11-17T11:34:50.605Z,93.92
2022-11-17T11:37:19.894Z,93.94
2022-11-17T11:39:56.270Z,93.90
2022-11-17T11:42:46.071Z,94.07
2022-11-17T11:45:36.550Z,94.38
2022-11-17T11:48:17.621Z,94.22
2022-11-17T11:50:53.620Z,93.75
2022-11-17T11:53:28.141Z,93.69
2022-11-17T11:56:11.193Z,94.32
2022-11-17T11:58:44.128Z,94.17
2022-11-17T12:01:17.169Z,94.10
2022-11-17T12:03:50.966Z,94.86
2022-11-17T12:06:44.182Z,94.77
2022-11-17T12:09:45.894Z,94.39
2022-11-17T12:12:17.196Z,94.23
2022-11-17T12:15:30.450Z,94.36
2022-11-17T12:18:03.931Z,94.86
2022-11-17T12:20:54.669Z,94.87
2022-11-17T12:23:57.590Z,95.06
2022-11-17T12:26:28.931Z,94.65
2022-11-17T12:29:26.540Z,94.47
2022-11-17T12:31:55.957Z,94.55
2022-11-17T12:34:28.977Z,94.40
2022-11-17T12:37:26.286Z,95.08
2022-11-17T12:39:57.151Z,94.59
2022-11-17T12:42:26.532Z,94.85
2022-11-17T12:45:00.245Z,94.88
2022-11-17T12:47:29.806Z,94.55
2022-11-17T12:50:19.868Z,94.79
2022-11-17T12:52:59.995Z,94.44
2022-11-17T12:55:43.707Z,94.73
2022-11-17T12:58:20.884Z,95.01
2022-11-17T13:00:54.882Z,94.97
2022-11-17T13:03:29.321Z,94.85
2022-11-17T13:06:33.929Z,95.00
2022-11-17T13:08:57.805Z,94.89
2022-11-17T13:11:25.998Z,94.99
2022-11-17T13:14:11.551Z,95.33
2022-11-17T13:16:46.233Z,94.95
2022-11-17T13:19:32.270Z,95.18
2022-11-17T13:22:01.697Z,94.93
2022-11-17T13:24:31.718Z,94.64
2022-11-17T13:27:00.678Z,94.60
2022-11-17T13:29:29.741Z,95.14
2022-11-17T13:32:13.627Z,95.55
2022-11-17T13:34:53.131Z,95.48
2022-11-17T13:37:22.946Z,95.27
2022-11-17T13:40:02.392Z,95.37
2022-11-17T13:42:33.412Z,95.26
2022-11-17T13:45:06.093Z,95.25
2022-11-17T13:47:46.407Z,95.25
2022-11-17T13:50:38.181Z,95.17
2022-11-17T13:53:23.866Z,95.16
2022-11-17T13:55:52.622Z,95.46
2022-11-17T13:58:38.143Z,95.52
2022-11-17T14:01:07.943Z,95.52
2022-11-17T14:03:38.759Z,95.70
2022-11-17T14:06:08.350Z,95.79
2022-11-17T14:08:37.289Z,95.53
2022-11-17T14:11:16.467Z,95.54
2022-11-17T14:13:46.206Z,94.93
2022-11-17T14:16:25.789Z,95.74
2022-11-17T14:18:59.674Z,95.41
2022-11-17T14:21:27.933Z,95.40
2022-11-17T14:24:05.359Z,95.34
2022-11-17T14:26:33.334Z,95.14
2022-11-17T14:29:02.369Z,95.26
2022-11-17T14:31:33.351Z,94.90
2022-11-17T14:34:01.164Z,94.85
2022-11-17T14:36:29.114Z,94.67
2022-11-17T14:38:56.858Z,94.81
2022-11-17T14:41:24.487Z,94.68
2022-11-17T14:43:52.239Z,94.79
2022-11-17T14:46:22.804Z,94.65
2022-11-17T14:48:52.408Z,94.77
2022-11-17T14:51:20.915Z,94.70
2022-11-17T14:53:49.193Z,94.51
2022-11-17T14:56:18.857Z,94.31
2022-11-17T14:58:46.892Z,94.56
2022-11-17T15:01:16.322Z,94.83
2022-11-17T15:03:44.143Z,94.53
2022-11-17T15:06:19.446Z,94.42
2022-11-17T15:08:47.810Z,94.57
2022-11-17T15:11:17.511Z,93.97
2022-11-17T15:13:45.293Z,93.58
2022-11-17T15:16:13.577Z,92.62
2022-11-17T15:18:41.268Z,93.06
2022-11-17T15:21:11.021Z,92.57
2022-11-17T15:23:41.667Z,92.68
2022-11-17T15:26:12.064Z,92.86
2022-11-17T15:28:39.773Z,92.80
2022-11-17T15:31:12.729Z,92.54
2022-11-17T15:33:41.721Z,91.36
2022-11-17T15:36:11.546Z,92.00
2022-11-17T15:38:41.553Z,91.42
2022-11-17T15:41:11.596Z,90.31
2022-11-17T15:43:40.972Z,90.26
2022-11-17T15:46:10.568Z,90.30
2022-11-17T15:48:40.168Z,89.68
2022-11-17T15:51:09.028Z,90.27
2022-11-17T15:53:38.517Z,90.73
2022-11-17T15:56:09.802Z,91.10
2022-11-17T15:58:37.723Z,90.88
2022-11-17T16:01:13.655Z,91.44
2022-11-17T16:03:43.103Z,91.43
2022-11-17T16:06:12.149Z,91.34
2022-11-17T16:08:40.509Z,91.28
2022-11-17T16:11:10.902Z,91.44
2022-11-17T16:13:39.090Z,91.23
2022-11-17T16:16:08.645Z,91.51
2022-11-17T16:18:38.559Z,91.73
2022-11-17T16:21:07.853Z,91.47
2022-11-17T16:23:39.813Z,91.80
2022-11-17T16:26:09.359Z,91.48
2022-11-17T16:28:37.236Z,91.45
2022-11-17T16:31:15.765Z,91.47
2022-11-17T16:33:48.123Z,91.30
2022-11-17T16:36:15.946Z,91.53
2022-11-17T16:38:59.775Z,91.41
2022-11-17T16:41:32.567Z,91.58
2022-11-17T16:44:00.891Z,91.58
2022-11-17T16:46:30.466Z,91.45
2022-11-17T16:49:01.489Z,91.29
2022-11-17T16:51:29.471Z,91.09
2022-11-17T16:53:59.368Z,91.09
2022-11-17T16:56:27.412Z,91.39
2022-11-17T16:58:57.151Z,91.33
2022-11-17T17:01:27.246Z,90.89
2022-11-17T17:03:58.549Z,90.50
2022-11-17T17:06:26.590Z,90.96
2022-11-17T17:08:55.304Z,91.11
2022-11-17T17:11:23.561Z,91.06
2022-11-17T17:13:51.529Z,90.88
2022-11-17T17:16:21.310Z,91.18
2022-11-17T17:18:49.055Z,90.96
2022-11-17T17:21:20.218Z,91.14
2022-11-17T17:23:48.133Z,91.10
2022-11-17T17:26:18.344Z,91.06
2022-11-17T17:28:48.366Z,91.11
2022-11-17T17:31:21.396Z,90.99
2022-11-17T17:33:51.801Z,90.95
2022-11-17T17:36:20.966Z,90.82
2022-11-17T17:38:54.991Z,91.09
2022-11-17T17:41:24.488Z,90.59
2022-11-17T17:43:57.402Z,90.73
2022-11-17T17:46:25.556Z,90.95
2022-11-17T17:48:54.795Z,90.65
2022-11-17T17:51:25.024Z,91.10
2022-11-17T17:53:53.679Z,91.11
2022-11-17T17:56:22.603Z,90.80
2022-11-17T17:58:51.744Z,90.96
2022-11-17T18:01:21.867Z,90.98
2022-11-17T18:03:51.174Z,90.58
2022-11-17T18:06:22.359Z,90.62
2022-11-17T18:08:50.504Z,90.72
2022-11-17T18:11:20.047Z,90.71
2022-11-17T18:13:49.651Z,90.34
2022-11-17T18:16:19.929Z,90.22
2022-11-17T18:18:47.821Z,90.52
2022-11-17T18:21:18.198Z,90.56
2022-11-17T18:23:47.432Z,90.04
2022-11-17T18:26:17.181Z,90.65
2022-11-17T18:28:50.347Z,90.80
2022-11-17T18:31:18.136Z,91.05
2022-11-17T18:33:46.207Z,90.61
2022-11-17T18:36:13.728Z,89.64
2022-11-17T18:38:41.415Z,90.42
2022-11-17T18:41:12.170Z,90.34
2022-11-17T18:43:40.059Z,90.30
2022-11-17T18:46:09.261Z,90.37
2022-11-17T18:48:39.156Z,90.25
2022-11-17T18:51:23.304Z,90.85
2022-11-17T18:53:52.700Z,90.66
2022-11-17T18:56:24.686Z,90.85
2022-11-17T18:58:53.085Z,90.90
2022-11-17T19:01:22.746Z,91.26
2022-11-17T19:03:52.395Z,90.82
2022-11-17T19:06:21.186Z,90.49
2022-11-17T19:08:49.295Z,90.83
2022-11-17T19:11:17.574Z,89.99
2022-11-17T19:13:47.478Z,90.40
2022-11-17T19:16:17.302Z,90.79
2022-11-17T19:18:46.998Z,90.63
2022-11-17T19:21:16.367Z,90.99
2022-11-17T19:23:51.118Z,90.86
2022-11-17T19:26:22.076Z,91.03
2022-11-17T19:28:52.027Z,91.00
2022-11-17T19:31:21.252Z,90.91
2022-11-17T19:33:50.041Z,90.56
2022-11-17T19:36:20.026Z,90.62
2022-11-17T19:38:49.983Z,90.84
2022-11-17T19:41:19.797Z,90.70
2022-11-17T19:43:47.917Z,90.63
2022-11-17T19:46:17.707Z,89.74
2022-11-17T19:48:46.395Z,90.78
2022-11-17T19:51:16.540Z,90.70
2022-11-17T19:53:44.662Z,90.79
2022-11-17T19:56:12.313Z,89.64
2022-11-17T19:58:41.125Z,90.28
2022-11-17T20:01:10.642Z,90.75
2022-11-17T20:03:40.938Z,91.12
2022-11-17T20:06:09.767Z,91.18
2022-11-17T20:08:37.757Z,90.68
2022-11-17T20:11:07.706Z,91.27
2022-11-17T20:13:36.363Z,91.32
2022-11-17T20:16:11.523Z,91.18
2022-11-17T20:18:41.777Z,91.20
2022-11-17T20:21:10.264Z,91.11
2022-11-17T20:23:39.309Z,90.87
2022-11-17T20:26:08.273Z,91.40
2022-11-17T20:28:37.758Z,91.28
2022-11-17T20:31:09.933Z,90.81
2022-11-17T20:33:38.133Z,91.33
2022-11-17T20:36:07.678Z,89.28
2022-11-17T20:38:35.909Z,90.85
2022-11-17T20:41:05.019Z,91.26
2022-11-17T20:43:33.877Z,91.09
2022-11-17T20:46:02.003Z,90.75
2022-11-17T20:48:30.255Z,90.51
2022-11-17T20:50:58.594Z,91.00
2022-11-17T20:53:28.734Z,91.06
2022-11-17T20:55:57.044Z,90.87
2022-11-17T20:58:25.263Z,90.92
2022-11-17T21:00:53.252Z,91.07
2022-11-17T21:03:21.597Z,91.14
2022-11-17T21:05:58.763Z,91.12
2022-11-17T21:08:30.509Z,91.74
2022-11-17T21:10:58.855Z,91.60
2022-11-17T21:13:27.501Z,91.71
2022-11-17T21:16:10.613Z,91.41
2022-11-17T21:18:39.742Z,91.84
2022-11-17T21:21:09.591Z,91.64
2022-11-17T21:23:40.006Z,91.50
2022-11-17T21:26:08.708Z,91.64
2022-11-17T21:28:37.196Z,91.99
2022-11-17T21:31:08.031Z,92.08
2022-11-17T21:33:36.173Z,92.00
2022-11-17T21:36:07.910Z,91.92
2022-11-17T21:38:35.856Z,91.94
2022-11-17T21:41:05.418Z,91.70
2022-11-17T21:43:33.694Z,92.33
2022-11-17T21:46:06.723Z,91.93
2022-11-17T21:48:35.304Z,92.06
2022-11-17T21:51:03.169Z,92.11
2022-11-17T21:53:31.375Z,92.30
2022-11-17T21:56:02.447Z,92.32
2022-11-17T21:58:31.521Z,92.46
2022-11-17T22:00:59.666Z,92.82
2022-11-17T22:03:27.698Z,92.59
2022-11-17T22:06:00.997Z,92.64
2022-11-17T22:08:29.832Z,92.26
2022-11-17T22:10:57.498Z,92.27
2022-11-17T22:13:25.211Z,92.38
2022-11-17T22:15:54.266Z,92.80
2022-11-17T22:18:22.226Z,92.60
2022-11-17T22:20:51.865Z,92.57
2022-11-17T22:23:19.608Z,92.34
2022-11-17T22:25:54.240Z,92.42
2022-11-17T22:28:22.505Z,92.62
2022-11-17T22:30:50.213Z,92.53
2022-11-17T22:33:20.257Z,93.15
2022-11-17T22:35:48.744Z,92.89
2022-11-17T22:38:17.098Z,92.37
2022-11-17T22:40:44.901Z,92.69
2022-11-17T22:43:15.431Z,92.63
2022-11-17T22:45:43.766Z,93.41
2022-11-17T22:48:11.590Z,92.71
2022-11-17T22:50:40.680Z,93.37
2022-11-17T22:53:08.380Z,92.68
2022-11-17T22:55:36.252Z,93.32
2022-11-17T22:58:03.950Z,93.50
2022-11-17T23:00:33.540Z,93.34
2022-11-17T23:03:01.464Z,92.92
2022-11-17T23:05:29.202Z,93.54
2022-11-17T23:07:58.304Z,93.19
2022-11-17T23:10:25.987Z,93.19
2022-11-17T23:12:53.720Z,93.59
2022-11-17T23:15:21.766Z,93.67
2022-11-17T23:17:49.842Z,93.50
2022-11-17T23:20:17.608Z,93.33
2022-11-17T23:22:45.255Z,93.41
2022-11-17T23:25:14.321Z,93.82
2022-11-17T23:27:42.135Z,93.93
2022-11-17T23:30:10.830Z,94.07
2022-11-17T23:32:38.514Z,94.32
2022-11-17T23:35:06.901Z,94.01
2022-11-17T23:37:34.591Z,93.80
2022-11-17T23:40:02.436Z,94.39
2022-11-17T23:42:32.630Z,93.95
2022-11-17T23:45:00.755Z,94.14
2022-11-17T23:47:28.388Z,94.55
2022-11-17T23:49:55.989Z,93.75
2022-11-17T23:52:23.674Z,94.02
2022-11-17T23:54:51.317Z,94.55
2022-11-17T23:57:18.970Z,94.33
2022-11-17T23:59:47.964Z,93.54
